Time;durP1;ratioP1;P1;durP2;ratioP2;P2;SDS_P1;SDS_P2;PMS_P1;PMS_P2;Temp;Humidity;BMP_temperature;BMP_pressure;BME280_temperature;BME280_humidity;BME280_pressure;Samples;Min_cycle;Max_cycle;Signal;HPM_P1;HPM_P2
2021/10/12 00:01:30;;;;;;;27.53;16.07;;;11.10;99.90;;;;;;5029172;28;20492;-80
2021/10/12 00:03:57;;;;;;;18.90;14.43;;;11.10;99.90;;;;;;5044487;28;20435;-81
2021/10/12 00:06:24;;;;;;;20.00;13.70;;;11.10;99.90;;;;;;5030682;28;20450;-79
2021/10/12 00:08:51;;;;;;;21.70;14.60;;;11.10;99.90;;;;;;5043551;28;20538;-79
2021/10/12 00:11:18;;;;;;;20.10;14.77;;;11.10;99.90;;;;;;5043090;28;20452;-78
2021/10/12 00:13:45;;;;;;;22.07;14.33;;;11.20;99.90;;;;;;5023477;28;20489;-81
2021/10/12 00:16:13;;;;;;;25.60;15.30;;;11.30;99.90;;;;;;5022790;28;20486;-79
2021/10/12 00:18:40;;;;;;;23.40;14.67;;;11.30;99.90;;;;;;5024493;28;20454;-80
2021/10/12 00:21:06;;;;;;;20.93;15.10;;;11.20;99.90;;;;;;5024033;28;20459;-80
2021/10/12 00:23:34;;;;;;;24.33;14.40;;;11.30;99.90;;;;;;5023685;28;20538;-80
2021/10/12 00:26:01;;;;;;;23.63;15.07;;;11.30;99.90;;;;;;5023998;28;20517;-80
2021/10/12 00:28:27;;;;;;;19.67;14.50;;;11.20;99.90;;;;;;5024104;28;20462;-80
2021/10/12 00:30:54;;;;;;;22.33;14.83;;;11.20;99.90;;;;;;5024096;28;20432;-80
2021/10/12 00:33:22;;;;;;;22.93;15.00;;;11.20;99.90;;;;;;5024026;28;20525;-79
2021/10/12 00:35:49;;;;;;;23.47;15.00;;;11.10;99.90;;;;;;5023675;28;20446;-80
2021/10/12 00:38:23;;;;;;;23.17;16.60;;;11.10;99.90;;;;;;5033388;28;20522;-79
2021/10/12 00:40:50;;;;;;;21.00;15.20;;;11.10;99.90;;;;;;5032700;28;20455;-79
2021/10/12 00:43:22;;;;;;;26.33;15.10;;;11.00;99.90;;;;;;5022367;28;20519;-79
2021/10/12 00:45:49;;;;;;;20.43;14.00;;;11.00;99.90;;;;;;5022224;28;20508;-79
2021/10/12 00:48:15;;;;;;;24.90;15.23;;;11.00;99.90;;;;;;5022638;28;21030;-79
2021/10/12 00:50:44;;;;;;;22.60;14.93;;;11.00;99.90;;;;;;5022662;28;20481;-79
2021/10/12 00:53:10;;;;;;;21.10;14.90;;;11.10;99.90;;;;;;5021493;28;20454;-79
2021/10/12 00:55:39;;;;;;;19.03;14.30;;;11.20;99.90;;;;;;5021912;28;20493;-79
2021/10/12 00:58:09;;;;;;;24.90;14.17;;;11.10;99.90;;;;;;5021458;28;20528;-79
2021/10/12 01:00:36;;;;;;;22.37;15.13;;;11.20;99.90;;;;;;5022074;28;20847;-79
2021/10/12 01:03:04;;;;;;;23.10;15.83;;;11.20;99.90;;;;;;5022662;28;20885;-80
2021/10/12 01:05:31;;;;;;;20.60;14.53;;;11.30;99.90;;;;;;5023822;28;20548;-79
2021/10/12 01:07:59;;;;;;;21.33;14.90;;;11.20;99.90;;;;;;5047496;28;20540;-79
2021/10/12 01:10:26;;;;;;;22.27;14.20;;;11.20;99.90;;;;;;5048264;28;20497;-79
2021/10/12 01:12:54;;;;;;;21.90;14.80;;;11.10;99.90;;;;;;5042342;28;20464;-80
2021/10/12 01:15:20;;;;;;;26.60;15.20;;;11.10;99.90;;;;;;5043865;28;20434;-79
2021/10/12 01:17:47;;;;;;;24.23;15.70;;;11.10;99.90;;;;;;5023832;28;20445;-79
2021/10/12 01:20:15;;;;;;;27.57;16.57;;;11.00;99.90;;;;;;5022157;28;20554;-80
2021/10/12 01:22:44;;;;;;;25.70;15.30;;;11.10;99.90;;;;;;5034496;28;20461;-80
2021/10/12 01:25:13;;;;;;;22.47;16.20;;;11.10;99.90;;;;;;5043683;28;20441;-80
2021/10/12 01:27:40;;;;;;;26.47;17.17;;;11.10;99.90;;;;;;5039548;28;20827;-80
2021/10/12 01:30:10;;;;;;;23.67;17.00;;;11.10;99.90;;;;;;5039202;28;20508;-80
2021/10/12 01:32:37;;;;;;;21.20;15.47;;;11.10;99.90;;;;;;5041502;28;20992;-80
2021/10/12 01:35:05;;;;;;;21.20;15.07;;;11.00;99.90;;;;;;5043153;28;20503;-80
2021/10/12 01:37:32;;;;;;;25.90;16.57;;;11.00;99.90;;;;;;5039968;28;20463;-80
2021/10/12 01:40:00;;;;;;;24.27;17.07;;;10.90;99.90;;;;;;5036793;28;20455;-80
2021/10/12 01:42:27;;;;;;;26.00;18.10;;;10.90;99.90;;;;;;5033674;28;20469;-80
2021/10/12 01:44:54;;;;;;;28.07;17.63;;;10.90;99.90;;;;;;5028012;28;20510;-80
2021/10/12 01:47:21;;;;;;;22.83;15.47;;;11.00;99.90;;;;;;5040169;28;20466;-78
2021/10/12 01:49:48;;;;;;;23.53;16.53;;;11.00;99.90;;;;;;5049964;28;20448;-78
2021/10/12 01:52:15;;;;;;;25.07;16.33;;;11.10;99.90;;;;;;5044862;28;20456;-80
2021/10/12 01:54:42;;;;;;;21.33;16.10;;;11.10;99.90;;;;;;5023947;28;20449;-79
2021/10/12 01:57:10;;;;;;;23.63;16.90;;;11.10;99.90;;;;;;5031154;28;20428;-79
2021/10/12 01:59:37;;;;;;;24.00;17.27;;;11.10;99.90;;;;;;5041237;28;20484;-79
2021/10/12 02:02:05;;;;;;;24.53;16.70;;;11.00;99.90;;;;;;5043144;28;20548;-79
2021/10/12 02:04:32;;;;;;;25.87;16.87;;;11.10;99.90;;;;;;5026984;28;20816;-80
2021/10/12 02:07:00;;;;;;;23.80;16.97;;;11.20;99.90;;;;;;5024085;28;20493;-80
2021/10/12 02:09:26;;;;;;;21.80;14.77;;;11.10;99.90;;;;;;5036080;28;20454;-79
2021/10/12 02:11:53;;;;;;;22.97;15.73;;;11.10;99.90;;;;;;5024518;28;20431;-78
2021/10/12 02:14:21;;;;;;;22.63;14.83;;;11.10;99.90;;;;;;5041805;28;20460;-79
2021/10/12 02:16:48;;;;;;;26.77;16.30;;;11.10;99.90;;;;;;5041143;28;20499;-79
2021/10/12 02:19:15;;;;;;;23.73;15.80;;;11.10;99.90;;;;;;5044663;28;20516;-80
2021/10/12 02:21:42;;;;;;;23.83;15.33;;;11.20;99.90;;;;;;5038810;28;20460;-79
2021/10/12 02:24:09;;;;;;;26.83;16.90;;;11.20;99.90;;;;;;5023839;28;20548;-79
2021/10/12 02:26:36;;;;;;;22.50;16.60;;;11.10;99.90;;;;;;5035711;28;20543;-79
2021/10/12 02:29:03;;;;;;;23.90;16.90;;;11.10;99.90;;;;;;5024627;28;20462;-79
2021/10/12 02:31:32;;;;;;;20.53;15.03;;;11.10;99.90;;;;;;5036934;28;20452;-78
2021/10/12 02:33:58;;;;;;;25.00;16.00;;;11.10;99.90;;;;;;5056419;28;20423;-79
2021/10/12 02:36:25;;;;;;;24.90;15.43;;;11.40;99.90;;;;;;5048200;28;20472;-79
2021/10/12 02:38:52;;;;;;;22.90;15.87;;;11.40;99.90;;;;;;5048438;28;20477;-79
2021/10/12 02:41:19;;;;;;;23.10;15.37;;;11.30;99.90;;;;;;5054153;28;20487;-79
2021/10/12 02:43:46;;;;;;;19.83;15.07;;;11.30;99.90;;;;;;5029223;28;20461;-79
2021/10/12 02:46:13;;;;;;;22.23;16.60;;;11.20;99.90;;;;;;5046205;28;20453;-79
2021/10/12 02:48:41;;;;;;;21.97;15.60;;;11.20;99.90;;;;;;5043805;28;20459;-79
2021/10/12 02:51:08;;;;;;;20.80;15.00;;;11.30;99.90;;;;;;5044599;28;20452;-79
2021/10/12 02:53:35;;;;;;;23.53;15.00;;;11.20;99.90;;;;;;5043775;28;20518;-79
2021/10/12 02:56:02;;;;;;;23.57;15.73;;;11.20;99.90;;;;;;5043232;28;20423;-79
2021/10/12 02:58:28;;;;;;;22.20;14.90;;;11.20;99.90;;;;;;5042844;28;20836;-79
2021/10/12 03:00:55;;;;;;;20.93;14.40;;;11.20;99.90;;;;;;5060820;23;20496;-80
2021/10/12 03:03:22;;;;;;;27.33;16.03;;;11.30;99.90;;;;;;5045626;28;20472;-80
2021/10/12 03:05:50;;;;;;;26.40;16.37;;;11.40;99.90;;;;;;5038766;28;20459;-79
2021/10/12 03:08:28;;;;;;;24.37;15.83;;;11.30;99.90;;;;;;5048407;28;20441;-80
2021/10/12 03:10:55;;;;;;;23.40;15.07;;;11.20;99.90;;;;;;5036355;28;20994;-82
2021/10/12 03:13:22;;;;;;;20.87;15.13;;;11.20;99.90;;;;;;5019247;28;21099;-82
2021/10/12 03:15:49;;;;;;;23.77;16.80;;;11.20;99.90;;;;;;5031294;28;20535;-80
2021/10/12 03:18:16;;;;;;;23.23;16.03;;;11.10;99.90;;;;;;5028783;28;20513;-81
2021/10/12 03:20:43;;;;;;;24.80;16.00;;;11.00;99.90;;;;;;5028627;28;20456;-81
2021/10/12 03:23:11;;;;;;;22.50;15.67;;;11.10;99.90;;;;;;5019775;28;20439;-82
2021/10/12 03:25:38;;;;;;;22.50;15.87;;;11.10;99.90;;;;;;5019268;28;20875;-82
2021/10/12 03:28:05;;;;;;;17.37;14.70;;;11.20;99.90;;;;;;5019910;28;20965;-80
2021/10/12 03:30:32;;;;;;;20.10;14.67;;;11.20;99.90;;;;;;5039184;28;20473;-81
2021/10/12 03:32:59;;;;;;;19.87;13.63;;;11.30;99.90;;;;;;5023077;28;20871;-81
2021/10/12 03:35:30;;;;;;;21.60;13.90;;;11.30;99.90;;;;;;5019923;28;20499;-82
2021/10/12 03:37:57;;;;;;;19.37;13.83;;;11.40;99.90;;;;;;5025539;28;20425;-80
2021/10/12 03:40:26;;;;;;;21.83;14.40;;;11.50;99.90;;;;;;5039741;28;20448;-81
2021/10/12 03:42:53;;;;;;;22.13;14.33;;;11.60;99.90;;;;;;5027494;28;20808;-81
2021/10/12 03:45:20;;;;;;;20.30;13.30;;;11.80;99.90;;;;;;5033898;28;20968;-81
2021/10/12 03:47:47;;;;;;;20.17;14.40;;;11.70;99.90;;;;;;5021801;28;20797;-81
2021/10/12 03:50:14;;;;;;;19.03;13.80;;;11.70;99.90;;;;;;4998757;28;20457;-82
2021/10/12 03:52:41;;;;;;;20.03;12.43;;;11.80;99.90;;;;;;5020591;28;20515;-82
2021/10/12 03:55:09;;;;;;;21.60;13.60;;;11.70;99.90;;;;;;5039923;28;20428;-81
2021/10/12 03:57:37;;;;;;;20.67;13.87;;;11.70;99.90;;;;;;5027954;28;20457;-81
2021/10/12 04:00:06;;;;;;;20.33;13.30;;;11.60;99.90;;;;;;5033068;28;20833;-81
2021/10/12 04:02:33;;;;;;;22.03;14.00;;;11.60;99.90;;;;;;5019924;28;20476;-82
2021/10/12 04:05:00;;;;;;;18.70;13.20;;;11.50;99.90;;;;;;5018665;28;21040;-82
2021/10/12 04:07:27;;;;;;;24.33;13.60;;;11.50;99.90;;;;;;5034143;28;20453;-79
2021/10/12 04:09:55;;;;;;;19.50;13.33;;;11.40;99.90;;;;;;5024701;28;20467;-80
2021/10/12 04:12:21;;;;;;;26.17;12.90;;;11.40;99.90;;;;;;5030260;28;20525;-81
2021/10/12 04:14:50;;;;;;;20.97;14.40;;;11.50;99.90;;;;;;5022240;28;20425;-81
2021/10/12 04:17:16;;;;;;;26.47;15.17;;;11.40;99.90;;;;;;5022936;28;20460;-81
2021/10/12 04:19:43;;;;;;;20.60;14.10;;;11.50;99.90;;;;;;5018183;28;20871;-82
2021/10/12 04:22:10;;;;;;;18.57;13.13;;;11.50;99.90;;;;;;5023560;28;20484;-80
2021/10/12 04:24:37;;;;;;;19.83;13.07;;;11.70;99.90;;;;;;5020954;28;20549;-82
2021/10/12 04:27:05;;;;;;;16.93;11.60;;;11.70;99.90;;;;;;5028687;28;20535;-82
2021/10/12 04:29:32;;;;;;;18.90;12.60;;;11.60;99.90;;;;;;5021596;28;20815;-82
2021/10/12 04:32:01;;;;;;;20.27;12.67;;;11.70;99.90;;;;;;5017210;28;20466;-82
2021/10/12 04:34:28;;;;;;;18.80;13.87;;;11.50;99.90;;;;;;5018169;28;20462;-82
2021/10/12 04:36:55;;;;;;;18.80;13.23;;;11.40;99.90;;;;;;5019245;28;20458;-80
2021/10/12 04:39:22;;;;;;;18.13;12.90;;;11.40;99.90;;;;;;5018443;28;20495;-81
2021/10/12 04:41:50;;;;;;;20.13;13.33;;;11.50;99.90;;;;;;5016684;28;20469;-79
2021/10/12 04:44:17;;;;;;;20.77;13.33;;;11.40;99.90;;;;;;5017469;28;20435;-82
2021/10/12 04:46:44;;;;;;;28.23;14.30;;;11.40;99.90;;;;;;5029732;28;20464;-81
2021/10/12 04:49:13;;;;;;;19.60;13.43;;;11.40;99.90;;;;;;5019777;28;20450;-81
2021/10/12 04:51:40;;;;;;;19.10;13.90;;;11.30;99.90;;;;;;5029197;28;20469;-80
2021/10/12 04:54:07;;;;;;;19.77;14.00;;;11.20;99.90;;;;;;5037986;28;20518;-80
2021/10/12 04:56:33;;;;;;;21.40;13.20;;;11.20;99.90;;;;;;5027150;28;20454;-79
2021/10/12 04:59:00;;;;;;;20.10;13.13;;;11.30;99.90;;;;;;5024341;28;20931;-81
2021/10/12 05:01:27;;;;;;;18.93;12.30;;;11.20;99.90;;;;;;5037457;28;20455;-81
2021/10/12 05:03:54;;;;;;;16.87;12.50;;;11.20;99.90;;;;;;5040197;28;20437;-80
2021/10/12 05:06:22;;;;;;;18.17;12.70;;;11.30;99.90;;;;;;5036615;28;20513;-82
2021/10/12 05:08:49;;;;;;;20.20;12.37;;;11.30;99.90;;;;;;5021550;28;20497;-81
2021/10/12 05:11:16;;;;;;;20.77;15.23;;;11.30;99.90;;;;;;5029790;28;20472;-79
2021/10/12 05:13:43;;;;;;;17.90;12.20;;;11.20;99.90;;;;;;5021672;28;20501;-78
2021/10/12 05:16:12;;;;;;;19.20;12.37;;;11.20;99.90;;;;;;5024255;28;20461;-79
2021/10/12 05:18:41;;;;;;;16.60;12.43;;;11.20;99.90;;;;;;5021684;28;20454;-81
2021/10/12 05:21:08;;;;;;;21.87;13.43;;;11.40;99.90;;;;;;5018615;28;20458;-81
2021/10/12 05:23:36;;;;;;;18.90;12.93;;;11.30;99.90;;;;;;5027126;28;20500;-81
2021/10/12 05:26:03;;;;;;;19.40;12.80;;;11.30;99.90;;;;;;5040097;28;20456;-81
2021/10/12 05:28:30;;;;;;;19.80;13.80;;;11.30;99.90;;;;;;5031803;28;20454;-81
2021/10/12 05:30:57;;;;;;;19.73;13.50;;;11.40;99.90;;;;;;5017040;28;20448;-81
2021/10/12 05:33:24;;;;;;;19.50;12.93;;;11.60;99.90;;;;;;5024469;28;20430;-82
2021/10/12 05:35:51;;;;;;;24.40;13.40;;;11.50;99.90;;;;;;5027528;28;20521;-80
2021/10/12 05:38:19;;;;;;;20.23;14.30;;;11.50;99.90;;;;;;5012774;28;20431;-79
2021/10/12 05:40:48;;;;;;;21.80;13.90;;;11.30;99.90;;;;;;5017075;28;21035;-80
2021/10/12 05:43:15;;;;;;;21.30;14.07;;;11.10;99.90;;;;;;5023149;28;20983;-80
2021/10/12 05:45:42;;;;;;;20.30;14.23;;;11.10;99.90;;;;;;5037391;28;20449;-79
2021/10/12 05:48:10;;;;;;;23.03;13.50;;;11.10;99.90;;;;;;5036223;28;20438;-78
2021/10/12 05:50:40;;;;;;;20.97;13.00;;;11.00;99.90;;;;;;5014920;28;20554;-82
2021/10/12 05:53:18;;;;;;;24.93;13.63;;;11.10;99.90;;;;;;5040516;28;20449;-81
2021/10/12 05:55:52;;;;;;;24.40;14.47;;;11.10;99.90;;;;;;5023903;28;20852;-80
2021/10/12 05:58:28;;;;;;;21.87;14.13;;;11.20;99.90;;;;;;5002440;28;20463;-82
2021/10/12 06:00:55;;;;;;;22.10;15.10;;;11.00;99.90;;;;;;5003038;28;20513;-80
2021/10/12 06:03:22;;;;;;;21.67;13.50;;;11.00;99.90;;;;;;5021337;28;20489;-81
2021/10/12 06:05:49;;;;;;;24.50;13.83;;;11.00;99.90;;;;;;5021677;28;20540;-81
2021/10/12 06:08:16;;;;;;;20.73;13.07;;;11.00;99.90;;;;;;5039322;28;20496;-81
2021/10/12 06:10:43;;;;;;;21.43;13.70;;;11.00;99.90;;;;;;5024161;28;20473;-81
2021/10/12 06:13:12;;;;;;;20.43;13.47;;;11.10;99.90;;;;;;5039627;28;20427;-80
2021/10/12 06:15:40;;;;;;;20.47;13.20;;;11.30;99.90;;;;;;5041573;28;20540;-80
2021/10/12 06:18:08;;;;;;;18.40;12.60;;;11.40;99.90;;;;;;5022387;28;20488;-80
2021/10/12 06:20:35;;;;;;;17.43;12.23;;;11.30;99.90;;;;;;5033038;28;20579;-81
2021/10/12 06:23:02;;;;;;;25.17;13.80;;;11.30;99.90;;;;;;5034669;28;20612;-82
2021/10/12 06:25:29;;;;;;;21.30;13.50;;;11.30;99.90;;;;;;5035267;28;20459;-80
2021/10/12 06:27:56;;;;;;;19.63;12.57;;;11.30;99.90;;;;;;5021535;28;20469;-82
2021/10/12 06:30:24;;;;;;;17.30;11.30;;;11.30;99.90;;;;;;5019933;28;20473;-80
2021/10/12 06:32:51;;;;;;;17.50;12.53;;;11.40;99.90;;;;;;5020888;28;20553;-82
2021/10/12 06:35:18;;;;;;;19.07;12.70;;;11.30;99.90;;;;;;5019376;28;20470;-79
2021/10/12 06:37:44;;;;;;;19.60;14.73;;;11.30;99.90;;;;;;5029331;28;20417;-80
2021/10/12 06:40:13;;;;;;;19.60;12.33;;;11.30;99.90;;;;;;5008400;28;20546;-77
2021/10/12 06:42:39;;;;;;;17.80;13.10;;;11.20;99.90;;;;;;5029916;28;20545;-78
2021/10/12 06:45:07;;;;;;;19.50;13.03;;;11.20;99.90;;;;;;5031519;28;20481;-79
2021/10/12 06:47:35;;;;;;;21.47;13.77;;;11.20;99.90;;;;;;5030977;28;20457;-79
2021/10/12 06:50:03;;;;;;;20.00;13.10;;;11.20;99.90;;;;;;5019971;28;20865;-79
2021/10/12 06:52:30;;;;;;;20.13;12.70;;;11.20;99.90;;;;;;5031948;28;20453;-81
2021/10/12 06:54:57;;;;;;;16.60;12.37;;;11.20;99.90;;;;;;5051865;28;20408;-79
2021/10/12 06:57:24;;;;;;;18.07;12.53;;;11.20;99.90;;;;;;5031813;28;20457;-81
2021/10/12 06:59:50;;;;;;;22.23;13.53;;;11.20;99.90;;;;;;5025775;28;20477;-78
2021/10/12 07:02:18;;;;;;;17.00;12.47;;;11.30;99.90;;;;;;5037581;28;20476;-79
2021/10/12 07:04:47;;;;;;;20.47;13.17;;;11.30;99.90;;;;;;5031589;28;20432;-79
2021/10/12 07:07:14;;;;;;;21.43;13.23;;;11.20;99.90;;;;;;5018697;28;20453;-81
2021/10/12 07:09:40;;;;;;;22.33;14.27;;;11.10;99.90;;;;;;5020325;28;20466;-81
2021/10/12 07:12:07;;;;;;;19.07;13.23;;;11.10;99.90;;;;;;5020879;28;20450;-81
2021/10/12 07:14:34;;;;;;;22.67;14.10;;;11.10;99.90;;;;;;5021022;28;20545;-80
2021/10/12 07:17:01;;;;;;;18.10;12.10;;;11.20;99.90;;;;;;5018796;28;20488;-83
2021/10/12 07:19:28;;;;;;;25.33;14.00;;;11.30;99.90;;;;;;5020901;28;21006;-78
2021/10/12 07:21:56;;;;;;;19.37;12.40;;;11.40;99.90;;;;;;5017426;28;20466;-79
2021/10/12 07:24:23;;;;;;;19.37;12.00;;;11.50;99.90;;;;;;5019599;28;20951;-79
2021/10/12 07:26:51;;;;;;;16.17;12.40;;;11.50;99.90;;;;;;5014722;28;20428;-78
2021/10/12 07:29:18;;;;;;;17.13;12.87;;;11.50;99.90;;;;;;5018306;28;20422;-78
2021/10/12 07:31:45;;;;;;;17.47;12.50;;;11.50;99.90;;;;;;5018178;28;20537;-78
2021/10/12 07:34:12;;;;;;;17.80;11.93;;;11.50;99.90;;;;;;5018159;28;20458;-78
2021/10/12 07:36:39;;;;;;;18.80;12.47;;;11.60;99.90;;;;;;5018597;28;20442;-78
2021/10/12 07:39:08;;;;;;;17.20;12.73;;;11.70;99.90;;;;;;5017696;28;20458;-78
2021/10/12 07:41:36;;;;;;;14.53;11.40;;;11.70;99.90;;;;;;5002987;28;20812;-79
2021/10/12 07:44:03;;;;;;;17.57;11.17;;;11.60;99.90;;;;;;4999639;28;20465;-79
2021/10/12 07:46:30;;;;;;;18.03;11.87;;;11.50;99.90;;;;;;5019774;28;20411;-78
2021/10/12 07:48:58;;;;;;;18.83;11.60;;;11.40;99.90;;;;;;5022581;28;20436;-78
2021/10/12 07:51:26;;;;;;;14.63;10.87;;;11.50;99.90;;;;;;5028788;28;20585;-78
2021/10/12 07:53:53;;;;;;;17.70;11.43;;;11.50;99.90;;;;;;5017899;28;20884;-77
2021/10/12 07:56:35;;;;;;;17.23;11.30;;;11.50;99.90;;;;;;5012698;28;20441;-78
2021/10/12 07:59:03;;;;;;;14.07;9.87;;;11.60;99.90;;;;;;5010455;28;20538;-78
2021/10/12 08:01:30;;;;;;;12.73;9.20;;;11.50;99.90;;;;;;5036143;28;20533;-78
2021/10/12 08:03:57;;;;;;;13.30;8.93;;;11.60;99.90;;;;;;5042594;28;20488;-78
2021/10/12 08:06:23;;;;;;;16.40;9.80;;;11.60;99.90;;;;;;5032581;28;20464;-78
2021/10/12 08:08:50;;;;;;;14.37;10.67;;;11.60;99.90;;;;;;5009051;28;20445;-79
2021/10/12 08:11:18;;;;;;;16.93;9.83;;;11.60;99.90;;;;;;5012292;28;20557;-78
2021/10/12 08:13:48;;;;;;;11.87;8.57;;;11.50;99.90;;;;;;5017052;28;20429;-80
2021/10/12 08:16:19;;;;;;;14.63;9.10;;;11.60;99.90;;;;;;5023704;28;20467;-78
2021/10/12 08:18:46;;;;;;;15.67;9.67;;;11.50;99.90;;;;;;5028878;28;20899;-79
2021/10/12 08:21:13;;;;;;;12.83;9.10;;;11.60;99.90;;;;;;5026069;28;20477;-79
2021/10/12 08:23:40;;;;;;;12.07;8.47;;;11.60;99.90;;;;;;5007255;28;20512;-78
2021/10/12 08:26:06;;;;;;;11.73;7.87;;;11.60;99.90;;;;;;5007373;28;20515;-78
2021/10/12 08:28:33;;;;;;;11.50;8.17;;;11.60;99.90;;;;;;5039200;28;20463;-78
2021/10/12 08:31:01;;;;;;;11.40;9.03;;;11.70;99.90;;;;;;5028723;28;20445;-79
2021/10/12 08:33:28;;;;;;;10.23;7.43;;;11.80;99.90;;;;;;5018127;28;20825;-79
2021/10/12 08:35:55;;;;;;;10.83;7.40;;;11.90;99.90;;;;;;5015317;28;20451;-78
2021/10/12 08:38:22;;;;;;;9.47;7.03;;;12.10;99.90;;;;;;5028735;28;20450;-79
2021/10/12 08:40:49;;;;;;;12.80;6.80;;;12.30;99.90;;;;;;5016603;28;20480;-78
2021/10/12 08:43:16;;;;;;;13.97;7.30;;;12.10;99.90;;;;;;5017691;28;20460;-78
2021/10/12 08:45:44;;;;;;;13.60;8.03;;;12.10;99.90;;;;;;5020337;28;20431;-78
2021/10/12 08:48:13;;;;;;;16.10;7.33;;;12.30;99.90;;;;;;5045031;28;20484;-79
2021/10/12 08:50:40;;;;;;;9.87;6.97;;;12.20;99.90;;;;;;5016819;28;20472;-79
2021/10/12 08:53:06;;;;;;;10.20;6.70;;;12.20;99.90;;;;;;5026717;28;20427;-79
2021/10/12 08:55:33;;;;;;;10.13;7.33;;;12.20;99.90;;;;;;5016774;28;20437;-79
2021/10/12 08:58:00;;;;;;;10.43;6.60;;;12.20;99.90;;;;;;5017247;28;20528;-79
2021/10/12 09:00:29;;;;;;;9.80;6.37;;;12.20;99.90;;;;;;5016257;28;20490;-78
2021/10/12 09:05:52;;;;;;;10.63;6.93;;;12.20;99.90;;;;;;5001999;28;20448;-79
2021/10/12 09:08:25;;;;;;;9.73;7.10;;;12.10;99.90;;;;;;5022021;28;20422;-79
2021/10/12 09:10:52;;;;;;;13.43;7.27;;;12.20;99.90;;;;;;5034019;28;20498;-78
2021/10/12 09:13:19;;;;;;;9.70;6.67;;;12.30;99.90;;;;;;5032518;28;20540;-78
2021/10/12 09:16:04;;;;;;;10.93;7.40;;;12.40;99.90;;;;;;5030956;28;20534;-79
2021/10/12 09:18:51;;;;;;;11.27;6.50;;;12.40;99.90;;;;;;5021906;28;20409;-78
2021/10/12 09:21:23;;;;;;;10.50;7.03;;;12.50;99.90;;;;;;5021993;28;20440;-78
2021/10/12 09:23:50;;;;;;;9.40;6.30;;;12.70;99.90;;;;;;5017711;28;20510;-79
2021/10/12 09:26:25;;;;;;;8.73;5.87;;;12.80;99.90;;;;;;5033607;28;20544;-79
2021/10/12 09:28:58;;;;;;;7.63;5.60;;;12.70;99.90;;;;;;5022870;28;20432;-79
2021/10/12 09:31:31;;;;;;;10.00;5.80;;;12.80;99.90;;;;;;5022392;28;20841;-77
2021/10/12 09:34:03;;;;;;;10.03;6.43;;;13.00;99.90;;;;;;5019272;28;20761;-78
2021/10/12 09:36:34;;;;;;;8.17;5.10;;;13.00;99.90;;;;;;5030825;28;20857;-79
2021/10/12 09:39:01;;;;;;;8.43;5.90;;;13.00;99.90;;;;;;5025027;28;20528;-79
2021/10/12 09:41:29;;;;;;;9.17;6.40;;;13.10;99.90;;;;;;5030266;28;20504;-79
2021/10/12 09:44:08;;;;;;;13.03;6.43;;;13.30;99.90;;;;;;5044226;28;20483;-79
2021/10/12 09:46:36;;;;;;;7.87;5.07;;;13.10;99.90;;;;;;5031646;28;20478;-80
2021/10/12 09:49:14;;;;;;;8.93;5.63;;;13.20;99.90;;;;;;5022678;28;20494;-79
2021/10/12 09:51:56;;;;;;;11.63;5.40;;;13.00;99.90;;;;;;5024050;28;20504;-79
2021/10/12 09:54:23;;;;;;;9.87;5.37;;;13.00;99.90;;;;;;5039156;28;20438;-79
2021/10/12 09:56:51;;;;;;;8.67;5.73;;;12.90;99.90;;;;;;5030057;28;20536;-79
2021/10/12 09:59:18;;;;;;;9.10;5.63;;;13.10;99.90;;;;;;5043939;28;20413;-82
2021/10/12 10:01:47;;;;;;;10.03;6.60;;;13.00;99.90;;;;;;5028783;28;20460;-80
2021/10/12 10:04:16;;;;;;;10.50;6.00;;;13.00;99.90;;;;;;5017659;28;20455;-80
2021/10/12 10:06:47;;;;;;;8.37;5.80;;;13.00;99.90;;;;;;5013574;28;20544;-80
2021/10/12 10:09:15;;;;;;;9.20;6.60;;;13.00;99.90;;;;;;5030469;28;20450;-81
2021/10/12 10:11:43;;;;;;;11.00;7.00;;;12.90;99.90;;;;;;5019935;28;20531;-80
2021/10/12 10:14:12;;;;;;;14.63;8.93;;;12.70;99.90;;;;;;5022999;28;20429;-80
2021/10/12 10:16:40;;;;;;;8.00;6.07;;;12.50;99.90;;;;;;5020183;28;20550;-81
2021/10/12 10:19:12;;;;;;;12.63;7.03;;;12.40;99.90;;;;;;5020347;28;20454;-81
2021/10/12 10:21:41;;;;;;;11.27;6.57;;;12.40;99.90;;;;;;5023026;28;20455;-82
2021/10/12 10:24:11;;;;;;;9.40;6.80;;;12.60;99.90;;;;;;5032357;28;20452;-80
2021/10/12 10:26:40;;;;;;;9.07;6.10;;;12.60;99.90;;;;;;5044380;28;20416;-81
2021/10/12 10:29:22;;;;;;;8.67;6.47;;;12.70;99.90;;;;;;5046633;28;20440;-79
2021/10/12 10:31:52;;;;;;;8.50;5.97;;;12.60;99.90;;;;;;5040668;28;20538;-82
2021/10/12 10:34:33;;;;;;;7.73;5.00;;;12.50;99.90;;;;;;5022654;28;20421;-82
2021/10/12 10:37:22;;;;;;;12.73;5.80;;;12.60;99.90;;;;;;5026929;28;20428;-83
2021/10/12 10:39:53;;;;;;;13.77;9.30;;;12.70;99.90;;;;;;5033955;28;20481;-83
2021/10/12 10:42:52;;;;;;;12.97;8.07;;;12.80;99.90;;;;;;5030816;28;20541;-85
2021/10/12 10:45:19;;;;;;;11.10;7.87;;;12.90;99.90;;;;;;5026992;28;20528;-82
2021/10/12 10:47:51;;;;;;;11.23;7.60;;;13.10;99.90;;;;;;5027085;28;20425;-82
2021/10/12 10:50:19;;;;;;;11.10;6.13;;;13.20;99.90;;;;;;5027086;28;20544;-82
2021/10/12 10:52:48;;;;;;;9.80;5.87;;;13.30;99.90;;;;;;5046688;28;20481;-82
2021/10/12 10:55:23;;;;;;;10.40;6.67;;;13.60;99.90;;;;;;5046225;28;20424;-81
2021/10/12 10:58:08;;;;;;;8.30;6.03;;;13.90;99.90;;;;;;5013171;28;20570;-80
2021/10/12 11:00:43;;;;;;;8.23;5.60;;;13.90;99.90;;;;;;5007050;28;20490;-80
2021/10/12 11:03:30;;;;;;;8.17;4.50;;;14.00;99.90;;;;;;5024105;28;20455;-81
2021/10/12 11:05:58;;;;;;;11.10;5.60;;;13.90;99.90;;;;;;5012918;28;20431;-81
2021/10/12 11:08:27;;;;;;;8.33;4.83;;;13.90;99.90;;;;;;5042629;28;20470;-82
2021/10/12 11:10:57;;;;;;;9.03;4.90;;;14.10;99.90;;;;;;5026564;28;20486;-81
2021/10/12 11:13:33;;;;;;;8.43;4.77;;;13.90;99.90;;;;;;5026481;28;20413;-82
2021/10/12 11:16:01;;;;;;;11.33;4.80;;;13.80;99.90;;;;;;5025870;28;20529;-81
2021/10/12 11:18:30;;;;;;;7.60;4.43;;;13.90;99.90;;;;;;5039828;28;20477;-82
2021/10/12 11:20:59;;;;;;;7.70;4.10;;;14.00;99.90;;;;;;5029386;28;20470;-80
2021/10/12 11:23:29;;;;;;;8.93;4.37;;;14.20;99.90;;;;;;5036464;28;22364;-79
2021/10/12 11:26:00;;;;;;;12.03;5.20;;;14.30;99.90;;;;;;5028876;28;20436;-80
2021/10/12 11:28:29;;;;;;;7.43;4.30;;;14.20;99.90;;;;;;5035101;28;20442;-81
2021/10/12 11:30:59;;;;;;;13.27;5.10;;;14.00;99.90;;;;;;5043281;28;20551;-80
2021/10/12 11:33:34;;;;;;;8.97;4.87;;;14.00;99.90;;;;;;5037476;28;20901;-80
2021/10/12 11:36:02;;;;;;;10.60;5.27;;;13.90;99.90;;;;;;5042699;28;20529;-79
2021/10/12 11:38:30;;;;;;;10.23;5.07;;;14.00;99.90;;;;;;5041456;28;20533;-79
2021/10/12 11:40:58;;;;;;;15.30;4.93;;;14.00;99.90;;;;;;5040787;28;20524;-81
2021/10/12 11:43:37;;;;;;;7.87;4.60;;;14.20;99.90;;;;;;5038765;28;20478;-79
2021/10/12 11:46:04;;;;;;;8.23;4.50;;;14.30;99.90;;;;;;5040484;28;20459;-80
2021/10/12 11:48:35;;;;;;;7.70;4.57;;;14.40;99.90;;;;;;5039456;28;20496;-79
2021/10/12 11:51:20;;;;;;;9.87;4.33;;;14.50;99.90;;;;;;5044103;28;20470;-77
2021/10/12 11:53:48;;;;;;;11.27;5.67;;;14.70;99.90;;;;;;5046536;28;20460;-79
2021/10/12 11:56:17;;;;;;;10.10;5.70;;;14.70;99.90;;;;;;5042293;28;20426;-80
2021/10/12 11:58:45;;;;;;;8.13;4.27;;;14.70;99.90;;;;;;5038979;28;20431;-79
2021/10/12 12:01:17;;;;;;;10.03;4.60;;;14.70;99.90;;;;;;5043922;28;20512;-80
2021/10/12 12:03:44;;;;;;;8.40;4.60;;;14.70;99.90;;;;;;5042264;28;20495;-80
2021/10/12 12:06:12;;;;;;;8.43;4.20;;;14.60;99.90;;;;;;5039012;28;20450;-80
2021/10/12 12:08:41;;;;;;;7.67;4.73;;;14.50;99.90;;;;;;5047525;28;20480;-78
2021/10/12 12:11:08;;;;;;;9.60;5.07;;;14.50;99.90;;;;;;5049179;28;20509;-79
2021/10/12 12:13:37;;;;;;;9.17;5.03;;;14.50;99.90;;;;;;5040198;28;20541;-79
2021/10/12 12:16:06;;;;;;;6.90;3.37;;;14.50;99.90;;;;;;5030271;28;20486;-78
2021/10/12 12:18:41;;;;;;;11.10;5.00;;;14.60;99.90;;;;;;5019225;28;20461;-78
2021/10/12 12:21:07;;;;;;;10.20;4.40;;;14.50;99.90;;;;;;5018962;28;20470;-81
2021/10/12 12:23:39;;;;;;;15.60;6.20;;;14.50;99.90;;;;;;5018982;28;20446;-79
2021/10/12 12:26:09;;;;;;;9.93;4.30;;;14.50;99.90;;;;;;5019697;28;20441;-80
2021/10/12 12:28:38;;;;;;;6.17;4.13;;;14.50;99.90;;;;;;5020120;28;21194;-80
2021/10/12 12:31:19;;;;;;;10.40;3.83;;;14.50;99.90;;;;;;5018864;28;20461;-79
2021/10/12 12:33:48;;;;;;;11.60;5.27;;;14.70;99.90;;;;;;5025351;28;20446;-80
2021/10/12 12:36:16;;;;;;;8.03;3.63;;;14.80;99.90;;;;;;5030955;28;20440;-80
2021/10/12 12:38:44;;;;;;;10.20;4.63;;;14.80;99.90;;;;;;5018519;28;20450;-80
2021/10/12 12:41:21;;;;;;;7.10;5.00;;;14.80;99.90;;;;;;5017779;28;20527;-80
2021/10/12 12:43:54;;;;;;;7.20;4.50;;;14.90;99.90;;;;;;5018157;28;20526;-79